Time;durP1;ratioP1;P1;durP2;ratioP2;P2;SDS_P1;SDS_P2;PMS_P1;PMS_P2;Temp;Humidity;BMP_temperature;BMP_pressure;BME280_temperature;BME280_humidity;BME280_pressure;Samples;Min_cycle;Max_cycle;Signal;HPM_P1;HPM_P2
2023/03/21 00:00:10;;;;;;;44.60;24.80;;;;;;;11.43;100.00;98825.73;135349;1281;22547;-63
2023/03/21 00:03:32;;;;;;;47.10;26.10;;;;;;;11.38;100.00;98822.23;135253;1281;22552;-61
2023/03/21 00:06:35;;;;;;;46.70;25.60;;;;;;;11.40;100.00;98823.66;135275;1281;22526;-63
2023/03/21 00:09:38;;;;;;;49.00;25.80;;;;;;;11.31;100.00;98818.42;135373;1281;23888;-61
2023/03/21 00:12:41;;;;;;;;;;;;;;;11.26;100.00;98818.19;135401;1281;22615;-61
2023/03/21 00:15:54;;;;;;;45.40;24.50;;;;;;;11.26;100.00;98820.52;135352;1281;22663;-61
2023/03/21 00:18:57;;;;;;;;;;;;;;;11.29;100.00;98817.86;135366;1263;22730;-63
2023/03/21 00:22:01;;;;;;;;;;;;;;;11.37;100.00;98813.68;135376;1281;22515;-63
2023/03/21 00:25:03;;;;;;;42.80;23.30;;;;;;;11.30;100.00;98813.77;135365;1281;22556;-61
2023/03/21 00:28:05;;;;;;;45.60;24.60;;;;;;;11.25;100.00;98814.79;135182;1281;22656;-61
2023/03/21 00:31:08;;;;;;;46.30;24.20;;;;;;;11.25;100.00;98815.30;135291;1281;22544;-64
2023/03/21 00:34:11;;;;;;;43.30;23.50;;;;;;;11.32;100.00;98811.92;135350;1281;22535;-64
2023/03/21 00:37:17;;;;;;;43.70;23.50;;;;;;;11.27;100.00;98815.02;135331;1281;22540;-61
2023/03/21 00:40:20;;;;;;;43.90;23.70;;;;;;;11.23;100.00;98818.42;135383;1281;22519;-61
2023/03/21 00:43:28;;;;;;;44.70;23.50;;;;;;;11.20;100.00;98812.68;135362;1258;24209;-63
2023/03/21 00:46:31;;;;;;;43.10;22.80;;;;;;;11.16;100.00;98815.73;135319;1263;24218;-64
2023/03/21 00:49:34;;;;;;;;;;;;;;;11.23;100.00;98805.98;135248;1281;22521;-63
2023/03/21 00:52:36;;;;;;;43.20;22.00;;;;;;;11.28;100.00;98809.58;135365;1263;22545;-66
2023/03/21 00:55:38;;;;;;;44.20;22.00;;;;;;;11.23;100.00;98805.61;135266;1264;22784;-62
2023/03/21 00:58:41;;;;;;;42.60;22.30;;;;;;;11.25;100.00;98803.42;135358;1281;22566;-62
2023/03/21 01:01:45;;;;;;;42.50;21.30;;;;;;;11.30;100.00;98800.31;135341;1281;22533;-62
2023/03/21 01:04:47;;;;;;;42.60;21.90;;;;;;;11.33;100.00;98804.13;135244;1281;22638;-62
2023/03/21 01:07:52;;;;;;;;;;;;;;;11.40;100.00;98801.22;135400;1281;23946;-61
2023/03/21 01:10:54;;;;;;;43.30;21.90;;;;;;;11.37;100.00;98799.67;135250;1281;25444;-61
2023/03/21 01:13:57;;;;;;;44.30;22.30;;;;;;;11.31;100.00;98798.33;135303;1281;22533;-59
2023/03/21 01:17:08;;;;;;;40.70;20.10;;;;;;;11.31;100.00;98796.89;135363;1281;22529;-61
2023/03/21 01:20:10;;;;;;;40.00;20.70;;;;;;;11.27;100.00;98800.33;131310;1281;5372157;-62
2023/03/21 01:23:13;;;;;;;42.80;20.90;;;;;;;11.29;100.00;98799.33;135389;1281;22540;-64
2023/03/21 01:26:15;;;;;;;41.80;21.30;;;;;;;11.34;100.00;98799.16;135383;1281;22537;-63
2023/03/21 01:29:17;;;;;;;41.60;19.90;;;;;;;11.30;100.00;98800.65;135358;1281;22614;-63
2023/03/21 01:32:20;;;;;;;39.90;20.00;;;;;;;11.25;100.00;98800.11;135330;1281;25483;-63
2023/03/21 01:35:23;;;;;;;43.30;20.90;;;;;;;11.16;100.00;98798.77;135309;1281;22548;-62
2023/03/21 01:38:25;;;;;;;41.70;21.10;;;;;;;11.11;100.00;98796.47;135335;1281;22558;-61
2023/03/21 01:41:27;;;;;;;40.80;20.40;;;;;;;11.12;100.00;98795.70;135371;1281;22790;-61
2023/03/21 01:44:30;;;;;;;;;;;;;;;11.00;100.00;98789.95;135351;1281;22484;-65
2023/03/21 01:47:33;;;;;;;40.50;20.40;;;;;;;11.00;100.00;98786.63;135369;1281;22642;-64
2023/03/21 01:50:35;;;;;;;39.40;19.40;;;;;;;11.07;100.00;98783.90;135379;1281;22550;-61
2023/03/21 01:53:38;;;;;;;41.30;20.00;;;;;;;11.06;100.00;98787.16;135376;1281;24190;-64
2023/03/21 01:56:40;;;;;;;41.20;20.20;;;;;;;11.00;100.00;98788.55;135366;1281;22534;-62
2023/03/21 01:59:42;;;;;;;41.30;20.50;;;;;;;11.02;100.00;98785.42;135206;1281;22537;-61
2023/03/21 02:02:50;;;;;;;42.90;21.40;;;;;;;10.95;100.00;98786.45;135367;1281;25410;-59
2023/03/21 02:05:53;;;;;;;41.70;20.80;;;;;;;10.85;100.00;98781.25;135345;1281;25244;-61
2023/03/21 02:08:55;;;;;;;41.60;20.50;;;;;;;10.72;100.00;98782.92;135344;1281;22539;-61
2023/03/21 02:11:58;;;;;;;40.70;20.00;;;;;;;10.68;100.00;98785.50;135358;1281;23941;-61
2023/03/21 02:15:00;;;;;;;39.90;20.10;;;;;;;10.66;100.00;98783.13;135266;1281;22644;-62
2023/03/21 02:18:03;;;;;;;39.50;20.10;;;;;;;10.69;100.00;98784.00;135324;1281;25237;-62
2023/03/21 02:21:05;;;;;;;40.70;20.40;;;;;;;10.74;100.00;98780.52;135294;1281;22582;-60
2023/03/21 02:24:07;;;;;;;41.80;21.30;;;;;;;10.80;100.00;98777.42;135315;1281;22533;-62
2023/03/21 02:27:10;;;;;;;42.20;22.40;;;;;;;10.70;100.00;98775.59;135348;1281;22539;-61
2023/03/21 02:30:13;;;;;;;45.90;22.70;;;;;;;10.82;100.00;98775.34;135370;1281;24276;-64
2023/03/21 02:33:15;;;;;;;;;;;;;;;10.99;100.00;98771.67;135381;1262;22976;-63
2023/03/21 02:36:18;;;;;;;51.80;26.00;;;;;;;11.09;100.00;98775.77;135327;1281;24393;-62
2023/03/21 02:39:22;;;;;;;50.50;26.60;;;;;;;11.11;100.00;98773.34;135307;1281;22529;-62
2023/03/21 02:42:24;;;;;;;47.90;25.10;;;;;;;11.06;100.00;98775.58;135276;1281;22717;-61
2023/03/21 02:45:27;;;;;;;50.70;26.30;;;;;;;11.11;100.00;98774.95;135365;1281;22552;-63
2023/03/21 02:48:29;;;;;;;50.70;25.30;;;;;;;11.23;100.00;98777.51;135359;1281;22566;-61
2023/03/21 02:51:31;;;;;;;48.40;24.40;;;;;;;11.09;100.00;98777.83;135375;1281;22526;-61
2023/03/21 02:54:34;;;;;;;49.90;24.60;;;;;;;10.85;100.00;98776.70;135328;1281;25237;-62
2023/03/21 02:57:36;;;;;;;;;;;;;;;11.05;100.00;98776.49;135359;1281;22984;-60
2023/03/21 03:00:39;;;;;;;54.90;28.40;;;;;;;11.14;100.00;98774.35;135359;1281;22535;-60
2023/03/21 03:03:41;;;;;;;55.20;28.40;;;;;;;10.99;100.00;98774.45;135341;1262;22545;-62
2023/03/21 03:06:45;;;;;;;55.80;28.80;;;;;;;10.86;100.00;98776.86;135334;1281;22533;-61
2023/03/21 03:09:47;;;;;;;57.80;28.80;;;;;;;10.72;100.00;98779.63;135327;1281;22550;-60
2023/03/21 03:12:50;;;;;;;51.20;27.00;;;;;;;10.55;100.00;98778.04;135386;1281;22586;-61
2023/03/21 03:15:52;;;;;;;;;;;;;;;10.55;100.00;98778.95;135380;1281;22505;-62
2023/03/21 03:18:55;;;;;;;49.70;26.40;;;;;;;10.66;100.00;98776.85;135345;1271;22503;-60
2023/03/21 03:21:57;;;;;;;49.50;25.80;;;;;;;10.69;100.00;98774.53;135338;1281;22572;-60
2023/03/21 03:25:00;;;;;;;56.50;26.30;;;;;;;10.71;100.00;98771.11;135366;1267;22541;-62
2023/03/21 03:28:02;;;;;;;;;;;;;;;10.80;100.00;98774.04;135364;1281;22510;-63
2023/03/21 03:31:07;;;;;;;53.10;27.40;;;;;;;10.85;100.00;98775.16;135358;1281;22563;-61
2023/03/21 03:34:10;;;;;;;60.60;29.50;;;;;;;10.92;100.00;98770.66;135352;1281;22527;-62
2023/03/21 03:37:12;;;;;;;58.30;30.50;;;;;;;10.97;100.00;98767.07;135340;1281;22567;-63
2023/03/21 03:40:15;;;;;;;57.50;29.70;;;;;;;11.08;100.00;98762.52;135292;1281;22589;-61
2023/03/21 03:43:18;;;;;;;51.70;25.70;;;;;;;11.09;100.00;98762.48;135351;1281;22545;-62
2023/03/21 03:46:20;;;;;;;47.10;24.50;;;;;;;11.02;100.00;98762.89;135316;1281;22562;-62
2023/03/21 03:49:23;;;;;;;45.90;23.40;;;;;;;10.95;100.00;98765.41;135352;1281;22541;-61
2023/03/21 03:52:26;;;;;;;47.50;24.40;;;;;;;10.91;100.00;98763.06;135341;1281;24245;-60
2023/03/21 03:55:33;;;;;;;48.00;23.80;;;;;;;10.84;100.00;98769.27;135282;1281;22550;-61
2023/03/21 03:58:37;;;;;;;50.20;24.60;;;;;;;10.78;100.00;98773.35;135299;1281;24398;-61
2023/03/21 04:04:57;;;;;;;63.60;31.70;;;;;;;10.83;100.00;98773.39;135326;1281;22544;-61
2023/03/21 04:07:59;;;;;;;66.00;32.20;;;;;;;10.77;100.00;98774.08;135346;1281;22564;-61
2023/03/21 04:11:02;;;;;;;66.40;31.80;;;;;;;10.68;100.00;98772.90;135315;1281;23909;-63
2023/03/21 04:14:05;;;;;;;67.50;32.30;;;;;;;10.81;100.00;98772.30;135275;1281;22533;-64
2023/03/21 04:17:07;;;;;;;62.10;29.20;;;;;;;10.87;100.00;98772.56;135367;1281;22527;-62
2023/03/21 04:20:09;;;;;;;59.60;28.60;;;;;;;10.96;100.00;98776.90;135338;1281;22550;-61
2023/03/21 04:23:12;;;;;;;59.50;30.00;;;;;;;11.01;100.00;98776.77;135326;1281;22661;-65
2023/03/21 04:26:14;;;;;;;59.80;29.30;;;;;;;10.96;100.00;98777.10;135276;1281;22541;-63
2023/03/21 04:29:16;;;;;;;59.70;29.70;;;;;;;10.79;100.00;98778.48;135330;1281;22529;-60
2023/03/21 04:32:23;;;;;;;56.90;29.50;;;;;;;10.71;100.00;98778.66;135248;1281;22604;-59
2023/03/21 04:35:25;;;;;;;59.80;31.20;;;;;;;10.73;100.00;98777.16;135225;1281;22538;-63
2023/03/21 04:38:29;;;;;;;;;;;;;;;10.67;100.00;98776.98;135344;1281;24228;-61
2023/03/21 04:41:31;;;;;;;64.80;31.30;;;;;;;10.65;100.00;98776.05;135334;1281;22526;-62
2023/03/21 04:44:34;;;;;;;59.70;30.80;;;;;;;10.64;100.00;98778.90;135321;1277;22544;-62
2023/03/21 04:47:36;;;;;;;64.40;32.10;;;;;;;10.67;100.00;98776.27;135367;1281;22522;-63
2023/03/21 04:50:39;;;;;;;62.20;32.10;;;;;;;10.78;100.00;98770.19;135331;1281;22526;-60
2023/03/21 04:53:43;;;;;;;62.00;31.20;;;;;;;10.81;100.00;98770.86;135343;1264;22618;-64
2023/03/21 04:56:46;;;;;;;63.20;30.60;;;;;;;10.76;100.00;98768.72;135305;1281;22564;-62
2023/03/21 04:59:48;;;;;;;63.00;29.90;;;;;;;10.79;100.00;98769.09;135130;1281;25421;-60
2023/03/21 05:02:51;;;;;;;59.20;31.60;;;;;;;10.91;100.00;98766.73;135313;1280;22536;-60
2023/03/21 05:05:53;;;;;;;64.00;31.40;;;;;;;10.94;100.00;98766.05;135312;1281;22536;-61
2023/03/21 05:08:58;;;;;;;63.00;32.30;;;;;;;10.91;100.00;98767.77;135342;1281;22541;-60
2023/03/21 05:12:01;;;;;;;58.40;30.40;;;;;;;10.79;100.00;98765.39;135329;1281;22563;-61
2023/03/21 05:15:04;;;;;;;71.20;35.60;;;;;;;10.90;100.00;98765.95;135339;1281;22553;-62
2023/03/21 05:18:10;;;;;;;70.50;35.60;;;;;;;10.88;100.00;98768.48;135318;1281;22532;-61
2023/03/21 05:21:16;;;;;;;71.60;35.00;;;;;;;10.76;100.00;98769.75;135290;1266;22537;-62
2023/03/21 05:24:19;;;;;;;63.20;33.00;;;;;;;10.74;100.00;98771.09;135329;1280;22550;-61
2023/03/21 05:27:35;;;;;;;64.20;32.20;;;;;;;10.79;100.00;98775.17;135337;1281;22533;-62
2023/03/21 05:30:37;;;;;;;66.30;33.40;;;;;;;10.78;100.00;98779.64;135307;1281;22532;-61
2023/03/21 05:33:40;;;;;;;65.60;32.10;;;;;;;10.82;100.00;98778.48;135319;1281;22562;-60
2023/03/21 05:36:42;;;;;;;66.90;34.60;;;;;;;10.78;100.00;98776.46;135307;1265;22529;-61
2023/03/21 05:39:45;;;;;;;70.10;34.20;;;;;;;10.88;100.00;98774.98;135284;1281;22545;-60
2023/03/21 05:42:47;;;;;;;71.90;37.80;;;;;;;10.99;100.00;98772.15;135360;1281;22603;-61
2023/03/21 05:45:49;;;;;;;68.90;36.10;;;;;;;11.13;100.00;98773.05;135236;1281;22529;-61
2023/03/21 05:48:52;;;;;;;67.90;35.00;;;;;;;11.36;100.00;98767.38;135281;1281;22771;-61
2023/03/21 05:51:54;;;;;;;65.10;35.80;;;;;;;11.48;100.00;98771.14;135324;1281;22529;-60
2023/03/21 05:54:56;;;;;;;62.70;32.90;;;;;;;11.49;100.00;98775.45;135329;1281;22559;-61
2023/03/21 05:57:59;;;;;;;62.20;33.60;;;;;;;11.33;100.00;98779.11;135297;1262;22642;-61
2023/03/21 06:01:01;;;;;;;66.80;34.40;;;;;;;11.25;100.00;98782.42;135318;1281;25255;-60
2023/03/21 06:04:04;;;;;;;67.50;32.30;;;;;;;11.16;100.00;98781.10;135282;1281;22582;-64
2023/03/21 06:07:06;;;;;;;68.20;34.20;;;;;;;11.34;100.00;98783.61;135307;1281;22535;-62
2023/03/21 06:10:09;;;;;;;65.90;33.50;;;;;;;11.37;100.00;98784.63;135290;1281;22530;-64
2023/03/21 06:13:11;;;;;;;;;;;;;;;11.35;100.00;98790.89;135348;1281;22516;-63
2023/03/21 06:16:14;;;;;;;68.90;35.30;;;;;;;11.31;100.00;98793.23;135277;1281;24331;-62
2023/03/21 06:19:16;;;;;;;68.70;34.60;;;;;;;11.22;100.00;98791.02;135315;1281;22535;-63
2023/03/21 06:22:18;;;;;;;70.80;34.20;;;;;;;11.31;100.00;98792.40;135305;1281;22530;-61
2023/03/21 06:25:21;;;;;;;70.60;36.30;;;;;;;11.32;100.00;98793.33;135286;1281;22555;-65
2023/03/21 06:28:23;;;;;;;67.30;34.50;;;;;;;11.38;100.00;98794.05;135308;1281;22526;-64
2023/03/21 06:31:25;;;;;;;67.30;35.00;;;;;;;11.34;100.00;98796.21;135297;1281;22536;-64
2023/03/21 06:34:28;;;;;;;72.50;35.90;;;;;;;11.34;100.00;98793.02;135281;1262;22579;-61
2023/03/21 06:37:30;;;;;;;66.80;34.10;;;;;;;11.38;100.00;98794.03;135282;1281;22533;-63
2023/03/21 06:40:33;;;;;;;60.30;30.40;;;;;;;11.30;100.00;98797.50;135263;1281;22526;-63
2023/03/21 06:43:35;;;;;;;63.10;31.00;;;;;;;11.24;100.00;98801.58;135317;1281;25451;-62
2023/03/21 06:46:37;;;;;;;64.10;32.60;;;;;;;11.21;100.00;98801.95;135330;1258;22536;-63
2023/03/21 06:49:42;;;;;;;59.50;30.70;;;;;;;11.15;100.00;98804.25;135340;1281;23061;-62
2023/03/21 06:52:44;;;;;;;57.90;28.80;;;;;;;11.15;100.00;98799.68;135307;1281;22529;-64
2023/03/21 06:55:47;;;;;;;61.80;31.10;;;;;;;11.21;100.00;98804.71;135241;1265;22533;-61
2023/03/21 06:58:49;;;;;;;59.20;30.30;;;;;;;11.22;100.00;98806.62;135267;1281;22539;-63
2023/03/21 07:01:52;;;;;;;56.40;28.00;;;;;;;11.23;100.00;98805.84;135265;1281;22527;-65
2023/03/21 07:04:55;;;;;;;56.80;29.40;;;;;;;11.30;100.00;98806.28;135286;1281;22645;-60
2023/03/21 07:08:00;;;;;;;53.90;27.60;;;;;;;11.42;100.00;98810.05;135304;1264;23676;-60
2023/03/21 07:11:02;;;;;;;53.10;26.40;;;;;;;11.36;100.00;98803.75;135277;1281;22547;-61
2023/03/21 07:14:05;;;;;;;52.30;26.00;;;;;;;11.44;100.00;98805.16;135311;1281;22539;-62
2023/03/21 07:17:07;;;;;;;56.40;25.40;;;;;;;11.62;100.00;98805.91;135275;1281;26636;-62
2023/03/21 07:20:11;;;;;;;;;;;;;;;11.76;100.00;98814.48;135317;1281;22535;-61
2023/03/21 07:23:14;;;;;;;53.70;26.30;;;;;;;11.82;100.00;98818.67;135318;1265;22557;-63
2023/03/21 07:26:17;;;;;;;49.40;24.80;;;;;;;11.79;100.00;98816.03;135223;1281;22539;-64
2023/03/21 07:29:22;;;;;;;52.90;25.90;;;;;;;11.78;100.00;98818.73;135299;1281;26525;-61
2023/03/21 07:32:28;;;;;;;50.70;24.00;;;;;;;11.74;100.00;98817.04;135119;1264;22551;-64
2023/03/21 07:35:31;;;;;;;52.30;25.70;;;;;;;11.70;100.00;98818.23;135353;1265;22542;-62
2023/03/21 07:38:33;;;;;;;51.70;24.80;;;;;;;11.62;100.00;98814.55;135340;1281;22532;-63
2023/03/21 07:41:35;;;;;;;56.50;26.60;;;;;;;11.71;100.00;98817.61;135280;1281;22529;-67
2023/03/21 07:44:38;;;;;;;50.20;24.30;;;;;;;11.74;100.00;98816.87;135284;1281;22532;-62
2023/03/21 07:47:40;;;;;;;49.20;25.00;;;;;;;11.87;100.00;98818.71;135281;1281;25353;-60
2023/03/21 07:50:43;;;;;;;49.80;24.40;;;;;;;11.87;100.00;98817.45;135288;1263;22525;-63
2023/03/21 07:53:47;;;;;;;52.90;25.40;;;;;;;11.89;100.00;98820.85;135208;1265;22538;-63
2023/03/21 07:56:50;;;;;;;52.10;25.50;;;;;;;12.01;100.00;98823.58;135314;1281;22591;-60
2023/03/21 07:59:52;;;;;;;;;;;;;;;12.11;100.00;98822.70;135179;1281;22519;-61
2023/03/21 08:02:54;;;;;;;50.60;23.90;;;;;;;12.24;100.00;98820.31;135281;1264;24045;-61
2023/03/21 08:05:57;;;;;;;51.10;25.70;;;;;;;12.24;100.00;98821.67;135321;1281;22541;-59
2023/03/21 08:08:59;;;;;;;50.00;23.80;;;;;;;12.22;100.00;98821.80;135303;1262;22526;-60
2023/03/21 08:12:02;;;;;;;50.50;24.30;;;;;;;12.26;100.00;98822.94;135298;1281;25598;-60
2023/03/21 08:15:04;;;;;;;49.80;24.10;;;;;;;12.47;100.00;98820.66;135279;1262;22533;-62
2023/03/21 08:18:06;;;;;;;;;;;;;;;12.51;100.00;98825.07;135330;1264;24215;-62
2023/03/21 08:21:09;;;;;;;48.40;22.60;;;;;;;12.60;100.00;98821.30;135329;1281;22541;-61
2023/03/21 08:24:11;;;;;;;;;;;;;;;12.63;100.00;98823.71;135301;1281;22540;-62
2023/03/21 08:27:14;;;;;;;47.70;22.40;;;;;;;12.62;100.00;98824.66;135322;1281;22552;-61
2023/03/21 08:30:16;;;;;;;;;;;;;;;12.51;100.00;98828.97;135237;1281;22579;-63
2023/03/21 08:33:19;;;;;;;44.40;20.80;;;;;;;12.48;100.00;98825.11;135291;1265;21801;-61
2023/03/21 08:36:21;;;;;;;39.40;19.20;;;;;;;12.24;100.00;98831.11;135290;1281;22538;-60
2023/03/21 08:39:23;;;;;;;39.70;18.40;;;;;;;12.20;100.00;98829.79;135305;1281;22570;-61
2023/03/21 08:42:26;;;;;;;38.20;18.30;;;;;;;11.88;100.00;98835.83;135283;1281;22542;-60
2023/03/21 08:45:28;;;;;;;40.30;19.30;;;;;;;11.81;100.00;98839.02;135182;1281;22537;-63
2023/03/21 08:48:31;;;;;;;40.50;18.20;;;;;;;11.64;100.00;98850.27;135314;1262;25966;-63
2023/03/21 08:51:33;;;;;;;41.70;19.60;;;;;;;11.60;100.00;98853.75;135317;1281;22547;-61
2023/03/21 08:54:36;;;;;;;44.80;21.20;;;;;;;11.65;100.00;98855.67;135318;1281;22516;-63
2023/03/21 08:57:39;;;;;;;46.00;22.30;;;;;;;11.73;100.00;98859.01;135277;1281;22529;-61
2023/03/21 09:00:42;;;;;;;46.80;22.40;;;;;;;11.62;100.00;98863.91;135282;1281;23035;-60
2023/03/21 09:03:44;;;;;;;46.10;21.50;;;;;;;11.58;100.00;98863.98;135302;1281;22534;-61
2023/03/21 09:06:49;;;;;;;46.00;22.70;;;;;;;11.72;100.00;98860.85;135319;1281;22633;-61
2023/03/21 09:09:52;;;;;;;45.20;23.10;;;;;;;11.84;100.00;98862.00;135327;1281;22535;-60
2023/03/21 09:12:54;;;;;;;44.00;21.60;;;;;;;11.90;100.00;98866.48;135299;1281;22647;-60
2023/03/21 09:16:00;;;;;;;50.30;24.80;;;;;;;12.04;100.00;98863.66;135284;1281;22516;-61
2023/03/21 09:19:03;;;;;;;51.00;26.20;;;;;;;12.14;100.00;98863.21;135191;1281;22558;-59
2023/03/21 09:22:09;;;;;;;49.70;25.50;;;;;;;12.35;100.00;98859.01;135134;1281;22529;-61
2023/03/21 09:25:12;;;;;;;50.00;25.50;;;;;;;12.47;100.00;98860.98;135304;1281;22522;-61
2023/03/21 09:28:15;;;;;;;46.10;23.90;;;;;;;12.60;100.00;98863.09;135276;1281;22576;-61
2023/03/21 09:31:21;;;;;;;47.70;24.60;;;;;;;12.75;100.00;98864.33;135313;1281;22533;-63
2023/03/21 09:34:25;;;;;;;51.10;27.70;;;;;;;12.93;100.00;98869.41;135311;1281;22561;-60
2023/03/21 09:37:27;;;;;;;49.90;25.90;;;;;;;13.02;100.00;98870.02;135302;1281;25217;-61
2023/03/21 09:40:30;;;;;;;52.40;26.70;;;;;;;12.98;100.00;98874.99;135204;1281;22618;-62
2023/03/21 09:43:33;;;;;;;51.40;27.10;;;;;;;12.89;100.00;98876.32;135304;1281;22549;-62
2023/03/21 09:46:35;;;;;;;50.90;26.20;;;;;;;12.84;100.00;98881.64;135305;1281;25240;-60
2023/03/21 09:49:37;;;;;;;;;;;;;;;12.60;100.00;98888.85;135302;1265;22530;-63
2023/03/21 09:52:40;;;;;;;50.70;26.60;;;;;;;12.47;100.00;98888.16;135275;1281;22547;-62
2023/03/21 09:55:43;;;;;;;;;;;;;;;12.42;100.00;98885.32;135323;1281;22515;-61
2023/03/21 09:58:46;;;;;;;51.70;26.80;;;;;;;12.41;100.00;98883.13;135330;1281;22529;-62
2023/03/21 10:01:49;;;;;;;51.20;25.80;;;;;;;12.39;100.00;98886.09;135303;1281;25263;-60
2023/03/21 10:04:51;;;;;;;;;;;;;;;12.38;100.00;98887.85;135337;1281;22518;-60
2023/03/21 10:07:54;;;;;;;;;;;;;;;12.35;100.00;98883.33;135331;1281;22513;-60
2023/03/21 10:10:57;;;;;;;49.50;24.90;;;;;;;12.24;100.00;98888.80;135327;1281;22646;-60
2023/03/21 10:13:59;;;;;;;52.80;26.20;;;;;;;12.22;100.00;98888.58;135303;1281;24252;-61
2023/03/21 10:17:02;;;;;;;;;;;;;;;12.25;100.00;98890.52;135308;1281;22511;-60
2023/03/21 10:20:09;;;;;;;53.00;27.10;;;;;;;12.29;100.00;98887.61;135300;1281;22549;-61
2023/03/21 10:23:12;;;;;;;51.10;25.30;;;;;;;12.50;100.00;98884.58;135320;1281;22602;-61
2023/03/21 10:26:15;;;;;;;51.10;26.00;;;;;;;12.71;100.00;98887.77;135294;1281;22529;-60
2023/03/21 10:29:17;;;;;;;;;;;;;;;12.98;100.00;98884.67;135280;1281;22511;-62
2023/03/21 10:32:21;;;;;;;48.30;24.90;;;;;;;13.03;99.92;98889.41;135303;1281;22545;-60
2023/03/21 10:35:24;;;;;;;48.30;25.70;;;;;;;13.20;99.76;98887.33;135323;1281;22547;-62
2023/03/21 10:38:26;;;;;;;;;;;;;;;13.47;99.61;98885.80;135299;1281;22536;-63
2023/03/21 10:41:29;;;;;;;49.10;26.50;;;;;;;13.86;99.48;98883.36;135262;1281;22525;-62
2023/03/21 10:44:31;;;;;;;;;;;;;;;14.29;96.38;98879.08;135300;1281;22550;-61
2023/03/21 10:47:33;;;;;;;52.50;27.90;;;;;;;14.58;94.31;98881.80;135120;1281;22610;-59
2023/03/21 10:50:36;;;;;;;47.90;25.10;;;;;;;14.72;92.06;98882.17;135087;1281;22619;-62
2023/03/21 10:53:38;;;;;;;46.90;25.40;;;;;;;14.66;88.01;98882.70;135325;1281;22534;-65
2023/03/21 10:56:41;;;;;;;48.20;24.60;;;;;;;14.81;87.53;98879.73;135314;1281;22645;-60
2023/03/21 10:59:44;;;;;;;46.40;24.80;;;;;;;14.73;85.91;98881.42;135296;1281;22533;-63
2023/03/21 11:02:46;;;;;;;46.80;25.90;;;;;;;14.35;85.87;98881.81;135320;1281;25229;-60
2023/03/21 11:05:49;;;;;;;49.70;26.40;;;;;;;13.94;87.30;98882.06;135307;1281;22542;-61
2023/03/21 11:08:51;;;;;;;45.20;25.90;;;;;;;13.78;87.86;98878.44;135292;1281;22573;-62
2023/03/21 11:11:54;;;;;;;46.90;25.30;;;;;;;13.62;88.29;98882.98;135300;1281;24256;-61
2023/03/21 11:14:56;;;;;;;48.60;24.10;;;;;;;13.33;90.84;98883.77;135236;1281;25449;-62
2023/03/21 11:17:59;;;;;;;47.70;24.20;;;;;;;13.34;91.16;98882.16;135307;1281;22673;-60
2023/03/21 11:21:01;;;;;;;46.30;24.70;;;;;;;13.42;90.00;98880.91;135276;1281;22558;-60
2023/03/21 11:24:04;;;;;;;;;;;;;;;13.50;89.12;98876.80;135134;1280;23375;-58
2023/03/21 11:27:06;;;;;;;48.10;24.30;;;;;;;13.48;90.04;98876.39;135288;1281;22543;-61
2023/03/21 11:30:09;;;;;;;46.00;25.40;;;;;;;13.56;89.48;98879.20;135288;1281;22576;-62
2023/03/21 11:33:11;;;;;;;46.60;24.10;;;;;;;13.48;88.64;98880.30;135326;1281;22517;-61
2023/03/21 11:36:13;;;;;;;44.80;22.70;;;;;;;13.34;88.13;98880.55;135298;1281;24392;-62
2023/03/21 11:39:16;;;;;;;43.10;22.30;;;;;;;13.19;87.51;98880.23;135298;1281;22536;-63
2023/03/21 11:42:18;;;;;;;;;;;;;;;13.07;88.94;98874.41;135323;1281;22521;-63
2023/03/21 11:45:21;;;;;;;41.90;20.80;;;;;;;13.07;89.20;98867.92;135297;1281;22548;-60
2023/03/21 11:48:23;;;;;;;44.90;23.40;;;;;;;13.03;88.81;98875.74;135302;1281;24078;-61
2023/03/21 11:51:25;;;;;;;42.70;21.10;;;;;;;12.95;89.48;98867.48;135290;1281;22585;-61
2023/03/21 11:54:28;;;;;;;40.40;20.60;;;;;;;12.93;88.81;98869.38;135313;1281;22560;-62
2023/03/21 11:57:30;;;;;;;41.50;20.70;;;;;;;12.80;91.05;98871.53;135322;1281;22552;-60
2023/03/21 12:00:33;;;;;;;;;;;;;;;12.87;90.95;98867.73;135313;1281;22519;-63
2023/03/21 12:03:35;;;;;;;42.00;20.30;;;;;;;12.92;92.29;98868.73;135273;1281;22523;-62
2023/03/21 12:06:38;;;;;;;38.60;19.70;;;;;;;13.17;91.39;98868.80;135306;1281;22572;-61
2023/03/21 12:09:40;;;;;;;;;;;;;;;13.38;90.99;98871.30;135327;1281;22504;-64
2023/03/21 12:12:43;;;;;;;37.80;18.50;;;;;;;13.57;90.32;98868.89;135236;1281;22582;-61
2023/03/21 12:15:45;;;;;;;36.80;18.70;;;;;;;13.68;87.68;98869.89;135219;1281;22534;-61
2023/03/21 12:18:47;;;;;;;32.90;15.90;;;;;;;13.90;86.50;98871.23;135308;1281;22535;-62
2023/03/21 12:21:50;;;;;;;32.30;16.60;;;;;;;13.98;82.11;98875.40;135270;1281;25279;-60
2023/03/21 12:24:52;;;;;;;32.10;15.00;;;;;;;13.95;79.11;98870.34;135264;1281;26559;-59
2023/03/21 12:27:55;;;;;;;;;;;;;;;13.71;79.91;98872.11;135210;1281;22517;-60
2023/03/21 12:30:57;;;;;;;30.00;15.00;;;;;;;13.55;81.18;98868.41;135334;1281;22542;-61
2023/03/21 12:33:59;;;;;;;33.80;17.50;;;;;;;13.49;81.65;98861.96;135317;1281;22540;-62
2023/03/21 12:37:02;;;;;;;34.00;16.90;;;;;;;13.53;82.14;98861.52;135281;1281;22552;-61
2023/03/21 12:40:07;;;;;;;34.80;16.60;;;;;;;13.62;82.12;98858.95;135277;1281;22565;-60
2023/03/21 12:43:09;;;;;;;34.10;17.20;;;;;;;13.64;80.64;98858.23;135335;1281;22665;-61
2023/03/21 12:46:11;;;;;;;;;;;;;;;13.73;82.16;98849.89;135319;1281;22536;-62
2023/03/21 12:49:14;;;;;;;33.10;16.50;;;;;;;13.80;80.66;98851.14;135211;1281;23804;-61
2023/03/21 12:52:16;;;;;;;;;;;;;;;13.84;82.11;98845.15;135230;1262;22517;-59
2023/03/21 12:55:19;;;;;;;26.50;11.80;;;;;;;13.77;77.54;98855.55;135200;1281;22548;-62
2023/03/21 12:58:23;;;;;;;;;;;;;;;13.83;78.56;98846.67;135312;1281;22507;-62
2023/03/21 13:01:25;;;;;;;27.20;12.60;;;;;;;13.81;76.64;98846.47;135275;1265;22532;-61
2023/03/21 13:04:27;;;;;;;26.60;12.20;;;;;;;13.71;77.45;98843.52;135304;1281;22530;-61
2023/03/21 13:07:30;;;;;;;27.50;12.80;;;;;;;13.78;76.45;98846.29;135339;1281;22552;-62
2023/03/21 13:10:32;;;;;;;26.50;12.60;;;;;;;13.87;77.46;98832.47;135310;1281;22543;-61
2023/03/21 13:13:35;;;;;;;27.50;12.40;;;;;;;13.97;77.06;98836.83;135283;1281;24383;-60
2023/03/21 13:16:37;;;;;;;25.20;11.90;;;;;;;14.17;73.86;98832.16;135245;1281;22584;-60
2023/03/21 13:19:39;;;;;;;24.10;10.60;;;;;;;14.09;71.97;98835.75;131233;1281;5355282;-66
2023/03/21 13:22:42;;;;;;;25.40;11.00;;;;;;;14.12;72.77;98833.07;135303;1281;22652;-61
2023/03/21 13:25:44;;;;;;;26.90;11.50;;;;;;;14.09;70.12;98834.67;135323;1267;22540;-61
2023/03/21 13:28:47;;;;;;;29.00;11.40;;;;;;;14.09;71.56;98830.31;135298;1281;22553;-61
2023/03/21 13:31:49;;;;;;;;;;;;;;;14.20;71.60;98828.96;135277;1281;22514;-62
2023/03/21 13:34:52;;;;;;;27.20;12.80;;;;;;;14.26;72.26;98828.86;135334;1281;22641;-63
2023/03/21 13:37:54;;;;;;;26.40;12.50;;;;;;;14.30;71.15;98829.98;135291;1281;25951;-61
2023/03/21 13:40:57;;;;;;;24.90;11.60;;;;;;;14.35;69.49;98830.96;135301;1281;22632;-60
2023/03/21 13:43:59;;;;;;;25.00;11.50;;;;;;;14.11;70.25;98830.51;135310;1281;22555;-60
2023/03/21 13:47:02;;;;;;;23.70;10.90;;;;;;;14.06;70.45;98827.01;135279;1281;22540;-60
2023/03/21 13:50:05;;;;;;;25.30;11.70;;;;;;;14.11;71.13;98832.41;135233;1281;23855;-60
2023/03/21 13:53:08;;;;;;;;;;;;;;;14.03;69.31;98837.05;135332;1281;22508;-61
2023/03/21 13:56:10;;;;;;;26.10;11.50;;;;;;;14.05;70.68;98831.84;135213;1281;22736;-60
2023/03/21 13:59:12;;;;;;;26.40;11.50;;;;;;;14.14;70.06;98831.38;135274;1268;24232;-61